sensor_id;sensor_type;location;lat;lon;timestamp;P1;durP1;ratioP1;P2;durP2;ratioP2
35699;SDS011;21818;51.078;12.108;2022-09-09T00:02:16;1.95;;;0.70;;
35699;SDS011;21818;51.078;12.108;2022-09-09T00:04:43;2.15;;;0.65;;
35699;SDS011;21818;51.078;12.108;2022-09-09T00:07:34;1.15;;;0.70;;
35699;SDS011;21818;51.078;12.108;2022-09-09T00:10:21;2.42;;;0.70;;
35699;SDS011;21818;51.078;12.108;2022-09-09T00:12:55;1.75;;;1.00;;
35699;SDS011;21818;51.078;12.108;2022-09-09T00:15:32;2.03;;;0.68;;
35699;SDS011;21818;51.078;12.108;2022-09-09T00:21:07;1.33;;;0.50;;
35699;SDS011;21818;51.078;12.108;2022-09-09T00:23:47;1.00;;;0.70;;
35699;SDS011;21818;51.078;12.108;2022-09-09T00:31:53;3.70;;;0.40;;
35699;SDS011;21818;51.078;12.108;2022-09-09T00:34:24;0.90;;;0.50;;
35699;SDS011;21818;51.078;12.108;2022-09-09T00:36:52;4.03;;;0.70;;
35699;SDS011;21818;51.078;12.108;2022-09-09T00:44:59;2.33;;;0.50;;
35699;SDS011;21818;51.078;12.108;2022-09-09T00:47:56;2.50;;;0.82;;
35699;SDS011;21818;51.078;12.108;2022-09-09T00:50:29;1.90;;;0.50;;
35699;SDS011;21818;51.078;12.108;2022-09-09T00:58:59;2.13;;;0.40;;
35699;SDS011;21818;51.078;12.108;2022-09-09T01:01:39;1.77;;;0.70;;
35699;SDS011;21818;51.078;12.108;2022-09-09T01:04:08;2.65;;;0.80;;
35699;SDS011;21818;51.078;12.108;2022-09-09T01:06:41;1.05;;;0.50;;
35699;SDS011;21818;51.078;12.108;2022-09-09T01:09:42;1.60;;;0.40;;
35699;SDS011;21818;51.078;12.108;2022-09-09T01:23:00;1.23;;;0.40;;
35699;SDS011;21818;51.078;12.108;2022-09-09T01:28:32;1.42;;;0.70;;
35699;SDS011;21818;51.078;12.108;2022-09-09T01:31:00;2.67;;;0.80;;
35699;SDS011;21818;51.078;12.108;2022-09-09T01:33:29;5.47;;;0.63;;
35699;SDS011;21818;51.078;12.108;2022-09-09T01:36:12;2.38;;;0.65;;
35699;SDS011;21818;51.078;12.108;2022-09-09T01:38:49;1.50;;;0.68;;
35699;SDS011;21818;51.078;12.108;2022-09-09T01:41:14;6.18;;;0.85;;
35699;SDS011;21818;51.078;12.108;2022-09-09T01:43:40;2.28;;;0.70;;
35699;SDS011;21818;51.078;12.108;2022-09-09T01:46:06;2.08;;;0.60;;
35699;SDS011;21818;51.078;12.108;2022-09-09T01:48:32;1.48;;;0.70;;
35699;SDS011;21818;51.078;12.108;2022-09-09T01:50:58;2.03;;;0.77;;
35699;SDS011;21818;51.078;12.108;2022-09-09T01:53:24;3.85;;;0.75;;
35699;SDS011;21818;51.078;12.108;2022-09-09T02:04:27;1.98;;;0.52;;
35699;SDS011;21818;51.078;12.108;2022-09-09T02:09:38;4.05;;;0.70;;
35699;SDS011;21818;51.078;12.108;2022-09-09T02:12:10;3.78;;;0.77;;
35699;SDS011;21818;51.078;12.108;2022-09-09T02:14:40;1.05;;;0.60;;
35699;SDS011;21818;51.078;12.108;2022-09-09T02:17:12;2.17;;;0.70;;
35699;SDS011;21818;51.078;12.108;2022-09-09T02:19:48;2.58;;;0.50;;
35699;SDS011;21818;51.078;12.108;2022-09-09T02:22:19;1.45;;;0.70;;
35699;SDS011;21818;51.078;12.108;2022-09-09T02:24:47;2.03;;;0.63;;
35699;SDS011;21818;51.078;12.108;2022-09-09T02:27:17;1.33;;;0.60;;
35699;SDS011;21818;51.078;12.108;2022-09-09T02:29:45;1.67;;;0.60;;
35699;SDS011;21818;51.078;12.108;2022-09-09T02:32:13;2.22;;;0.60;;
35699;SDS011;21818;51.078;12.108;2022-09-09T02:34:46;3.25;;;0.60;;
35699;SDS011;21818;51.078;12.108;2022-09-09T02:37:16;2.15;;;0.70;;
35699;SDS011;21818;51.078;12.108;2022-09-09T02:39:44;3.17;;;0.88;;
35699;SDS011;21818;51.078;12.108;2022-09-09T02:42:09;1.58;;;0.60;;
35699;SDS011;21818;51.078;12.108;2022-09-09T02:44:35;2.10;;;0.73;;
35699;SDS011;21818;51.078;12.108;2022-09-09T02:52:33;2.65;;;0.75;;
35699;SDS011;21818;51.078;12.108;2022-09-09T02:55:16;2.23;;;0.50;;
35699;SDS011;21818;51.078;12.108;2022-09-09T02:57:48;3.05;;;0.70;;
35699;SDS011;21818;51.078;12.108;2022-09-09T03:00:15;1.67;;;0.50;;
35699;SDS011;21818;51.078;12.108;2022-09-09T03:02:41;2.53;;;0.60;;
35699;SDS011;21818;51.078;12.108;2022-09-09T03:05:07;1.27;;;0.55;;
35699;SDS011;21818;51.078;12.108;2022-09-09T03:07:33;1.80;;;0.88;;
35699;SDS011;21818;51.078;12.108;2022-09-09T03:09:58;1.20;;;0.70;;
35699;SDS011;21818;51.078;12.108;2022-09-09T03:12:24;3.25;;;0.80;;
35699;SDS011;21818;51.078;12.108;2022-09-09T03:14:50;1.98;;;0.65;;
35699;SDS011;21818;51.078;12.108;2022-09-09T03:17:15;2.67;;;0.60;;
35699;SDS011;21818;51.078;12.108;2022-09-09T03:19:41;1.20;;;0.60;;
35699;SDS011;21818;51.078;12.108;2022-09-09T03:22:09;1.40;;;0.43;;
35699;SDS011;21818;51.078;12.108;2022-09-09T03:24:36;4.43;;;0.73;;
35699;SDS011;21818;51.078;12.108;2022-09-09T03:27:01;1.27;;;0.68;;
35699;SDS011;21818;51.078;12.108;2022-09-09T03:29:27;1.73;;;0.70;;
35699;SDS011;21818;51.078;12.108;2022-09-09T03:31:53;1.17;;;0.60;;
35699;SDS011;21818;51.078;12.108;2022-09-09T03:34:19;5.03;;;1.73;;
35699;SDS011;21818;51.078;12.108;2022-09-09T03:36:44;2.90;;;0.47;;
35699;SDS011;21818;51.078;12.108;2022-09-09T03:39:11;1.00;;;0.50;;
35699;SDS011;21818;51.078;12.108;2022-09-09T03:41:36;2.58;;;0.77;;
35699;SDS011;21818;51.078;12.108;2022-09-09T03:44:02;2.47;;;0.77;;
35699;SDS011;21818;51.078;12.108;2022-09-09T03:46:28;1.90;;;0.52;;
35699;SDS011;21818;51.078;12.108;2022-09-09T03:48:53;3.30;;;0.52;;
35699;SDS011;21818;51.078;12.108;2022-09-09T03:51:19;1.58;;;0.65;;
35699;SDS011;21818;51.078;12.108;2022-09-09T03:53:46;2.90;;;0.70;;
35699;SDS011;21818;51.078;12.108;2022-09-09T03:56:12;1.33;;;0.63;;
35699;SDS011;21818;51.078;12.108;2022-09-09T03:58:38;3.28;;;0.70;;
35699;SDS011;21818;51.078;12.108;2022-09-09T04:01:05;1.15;;;0.60;;
35699;SDS011;21818;51.078;12.108;2022-09-09T04:03:35;2.42;;;0.80;;
35699;SDS011;21818;51.078;12.108;2022-09-09T04:06:02;2.53;;;0.85;;
35699;SDS011;21818;51.078;12.108;2022-09-09T04:08:29;1.63;;;0.50;;
35699;SDS011;21818;51.078;12.108;2022-09-09T04:10:58;2.08;;;0.57;;
35699;SDS011;21818;51.078;12.108;2022-09-09T04:13:25;1.85;;;0.80;;
35699;SDS011;21818;51.078;12.108;2022-09-09T04:15:52;2.63;;;0.73;;
35699;SDS011;21818;51.078;12.108;2022-09-09T04:20:49;2.72;;;0.60;;
35699;SDS011;21818;51.078;12.108;2022-09-09T04:23:16;2.85;;;0.60;;
35699;SDS011;21818;51.078;12.108;2022-09-09T04:25:44;4.15;;;0.50;;
35699;SDS011;21818;51.078;12.108;2022-09-09T04:28:11;1.77;;;0.50;;
35699;SDS011;21818;51.078;12.108;2022-09-09T04:30:38;4.13;;;0.85;;
35699;SDS011;21818;51.078;12.108;2022-09-09T04:33:04;2.78;;;0.80;;
35699;SDS011;21818;51.078;12.108;2022-09-09T04:35:31;3.22;;;0.68;;
35699;SDS011;21818;51.078;12.108;2022-09-09T04:37:57;1.23;;;0.55;;
35699;SDS011;21818;51.078;12.108;2022-09-09T04:40:22;3.17;;;0.50;;
35699;SDS011;21818;51.078;12.108;2022-09-09T04:42:48;1.63;;;0.50;;
35699;SDS011;21818;51.078;12.108;2022-09-09T04:45:15;3.53;;;0.77;;
35699;SDS011;21818;51.078;12.108;2022-09-09T04:47:40;2.25;;;0.80;;
35699;SDS011;21818;51.078;12.108;2022-09-09T04:50:06;1.58;;;0.43;;
35699;SDS011;21818;51.078;12.108;2022-09-09T04:52:34;1.38;;;0.60;;
35699;SDS011;21818;51.078;12.108;2022-09-09T04:55:00;1.30;;;0.55;;
35699;SDS011;21818;51.078;12.108;2022-09-09T04:57:26;3.50;;;0.70;;
35699;SDS011;21818;51.078;12.108;2022-09-09T04:59:51;2.03;;;0.60;;
35699;SDS011;21818;51.078;12.108;2022-09-09T05:02:17;0.68;;;0.30;;
35699;SDS011;21818;51.078;12.108;2022-09-09T05:04:43;1.10;;;0.63;;
35699;SDS011;21818;51.078;12.108;2022-09-09T05:07:08;3.28;;;0.65;;
35699;SDS011;21818;51.078;12.108;2022-09-09T05:09:34;1.65;;;0.50;;
35699;SDS011;21818;51.078;12.108;2022-09-09T05:11:59;5.00;;;0.88;;
35699;SDS011;21818;51.078;12.108;2022-09-09T05:14:25;2.00;;;0.50;;
35699;SDS011;21818;51.078;12.108;2022-09-09T05:16:51;2.03;;;0.77;;
35699;SDS011;21818;51.078;12.108;2022-09-09T05:19:17;0.73;;;0.40;;
35699;SDS011;21818;51.078;12.108;2022-09-09T05:21:44;1.90;;;0.75;;
35699;SDS011;21818;51.078;12.108;2022-09-09T05:24:10;9.65;;;1.45;;
35699;SDS011;21818;51.078;12.108;2022-09-09T05:26:36;18.27;;;3.15;;
35699;SDS011;21818;51.078;12.108;2022-09-09T05:29:01;18.88;;;3.33;;
35699;SDS011;21818;51.078;12.108;2022-09-09T05:31:29;18.13;;;3.50;;
35699;SDS011;21818;51.078;12.108;2022-09-09T05:33:55;14.55;;;3.58;;
35699;SDS011;21818;51.078;12.108;2022-09-09T05:36:21;9.82;;;2.00;;
35699;SDS011;21818;51.078;12.108;2022-09-09T05:38:48;11.45;;;2.35;;
35699;SDS011;21818;51.078;12.108;2022-09-09T05:41:14;10.70;;;2.75;;
35699;SDS011;21818;51.078;12.108;2022-09-09T05:43:42;11.68;;;2.28;;
35699;SDS011;21818;51.078;12.108;2022-09-09T05:46:13;13.68;;;2.53;;
35699;SDS011;21818;51.078;12.108;2022-09-09T05:48:40;13.27;;;2.15;;
35699;SDS011;21818;51.078;12.108;2022-09-09T05:51:11;20.15;;;2.55;;
35699;SDS011;21818;51.078;12.108;2022-09-09T05:53:40;11.20;;;2.15;;
35699;SDS011;21818;51.078;12.108;2022-09-09T05:56:10;11.05;;;2.20;;
35699;SDS011;21818;51.078;12.108;2022-09-09T05:58:40;11.15;;;2.25;;
35699;SDS011;21818;51.078;12.108;2022-09-09T06:01:13;13.38;;;2.03;;
35699;SDS011;21818;51.078;12.108;2022-09-09T06:03:41;8.30;;;2.35;;
35699;SDS011;21818;51.078;12.108;2022-09-09T06:06:09;8.77;;;1.95;;
35699;SDS011;21818;51.078;12.108;2022-09-09T06:08:40;8.52;;;2.63;;
35699;SDS011;21818;51.078;12.108;2022-09-09T06:11:09;8.18;;;1.73;;
35699;SDS011;21818;51.078;12.108;2022-09-09T06:13:37;9.70;;;2.30;;
35699;SDS011;21818;51.078;12.108;2022-09-09T06:16:04;9.00;;;1.85;;
35699;SDS011;21818;51.078;12.108;2022-09-09T06:18:30;8.55;;;1.73;;
35699;SDS011;21818;51.078;12.108;2022-09-09T06:20:59;4.00;;;1.25;;
35699;SDS011;21818;51.078;12.108;2022-09-09T06:23:26;4.97;;;1.52;;
35699;SDS011;21818;51.078;12.108;2022-09-09T06:26:12;4.57;;;1.33;;
35699;SDS011;21818;51.078;12.108;2022-09-09T06:28:38;5.10;;;1.10;;
35699;SDS011;21818;51.078;12.108;2022-09-09T06:31:07;8.57;;;1.40;;
35699;SDS011;21818;51.078;12.108;2022-09-09T06:33:36;6.60;;;1.40;;
35699;SDS011;21818;51.078;12.108;2022-09-09T06:36:13;6.85;;;1.42;;
35699;SDS011;21818;51.078;12.108;2022-09-09T06:38:40;7.60;;;1.88;;
35699;SDS011;21818;51.078;12.108;2022-09-09T06:41:07;6.20;;;1.30;;
35699;SDS011;21818;51.078;12.108;2022-09-09T06:43:33;7.85;;;1.88;;
35699;SDS011;21818;51.078;12.108;2022-09-09T06:46:04;7.20;;;0.90;;
35699;SDS011;21818;51.078;12.108;2022-09-09T06:48:33;4.30;;;1.15;;
35699;SDS011;21818;51.078;12.108;2022-09-09T06:51:02;5.90;;;1.35;;
35699;SDS011;21818;51.078;12.108;2022-09-09T06:53:39;6.03;;;1.30;;
35699;SDS011;21818;51.078;12.108;2022-09-09T06:58:46;3.67;;;0.80;;
35699;SDS011;21818;51.078;12.108;2022-09-09T07:01:17;6.90;;;1.50;;
35699;SDS011;21818;51.078;12.108;2022-09-09T07:03:51;4.25;;;1.13;;
35699;SDS011;21818;51.078;12.108;2022-09-09T07:06:22;3.45;;;0.80;;
35699;SDS011;21818;51.078;12.108;2022-09-09T07:08:53;3.65;;;1.10;;
35699;SDS011;21818;51.078;12.108;2022-09-09T07:11:20;7.47;;;1.88;;
35699;SDS011;21818;51.078;12.108;2022-09-09T07:13:47;7.63;;;1.73;;
35699;SDS011;21818;51.078;12.108;2022-09-09T07:16:14;2.80;;;0.88;;
35699;SDS011;21818;51.078;12.108;2022-09-09T07:18:41;2.35;;;0.90;;
35699;SDS011;21818;51.078;12.108;2022-09-09T07:21:07;9.00;;;1.38;;
35699;SDS011;21818;51.078;12.108;2022-09-09T07:23:33;4.93;;;1.10;;
35699;SDS011;21818;51.078;12.108;2022-09-09T07:26:00;5.03;;;0.82;;
35699;SDS011;21818;51.078;12.108;2022-09-09T07:28:26;3.65;;;0.90;;
35699;SDS011;21818;51.078;12.108;2022-09-09T07:30:57;5.25;;;1.00;;
35699;SDS011;21818;51.078;12.108;2022-09-09T07:33:24;1.50;;;0.90;;
35699;SDS011;21818;51.078;12.108;2022-09-09T07:35:50;3.70;;;1.13;;
35699;SDS011;21818;51.078;12.108;2022-09-09T07:38:17;4.95;;;1.05;;
35699;SDS011;21818;51.078;12.108;2022-09-09T07:40:43;4.30;;;1.23;;
35699;SDS011;21818;51.078;12.108;2022-09-09T07:43:09;2.85;;;1.00;;
35699;SDS011;21818;51.078;12.108;2022-09-09T07:45:35;4.20;;;0.93;;
35699;SDS011;21818;51.078;12.108;2022-09-09T07:48:01;2.08;;;0.60;;
35699;SDS011;21818;51.078;12.108;2022-09-09T07:50:27;8.02;;;1.10;;
35699;SDS011;21818;51.078;12.108;2022-09-09T07:52:54;4.00;;;1.13;;
35699;SDS011;21818;51.078;12.108;2022-09-09T07:55:20;1.75;;;0.60;;
35699;SDS011;21818;51.078;12.108;2022-09-09T07:57:46;9.65;;;0.93;;
35699;SDS011;21818;51.078;12.108;2022-09-09T08:00:12;2.47;;;0.75;;
35699;SDS011;21818;51.078;12.108;2022-09-09T08:02:39;2.97;;;0.63;;
35699;SDS011;21818;51.078;12.108;2022-09-09T08:05:05;3.20;;;0.93;;
35699;SDS011;21818;51.078;12.108;2022-09-09T08:07:31;2.63;;;0.63;;
35699;SDS011;21818;51.078;12.108;2022-09-09T08:09:56;2.72;;;0.80;;
35699;SDS011;21818;51.078;12.108;2022-09-09T08:12:22;4.22;;;0.93;;
35699;SDS011;21818;51.078;12.108;2022-09-09T08:14:48;4.22;;;0.80;;
35699;SDS011;21818;51.078;12.108;2022-09-09T08:17:13;1.95;;;0.77;;
35699;SDS011;21818;51.078;12.108;2022-09-09T08:19:39;4.75;;;1.20;;
35699;SDS011;21818;51.078;12.108;2022-09-09T08:22:05;4.05;;;0.85;;
35699;SDS011;21818;51.078;12.108;2022-09-09T08:24:32;5.07;;;1.65;;
35699;SDS011;21818;51.078;12.108;2022-09-09T08:26:58;4.68;;;1.25;;
35699;SDS011;21818;51.078;12.108;2022-09-09T08:29:24;3.60;;;1.90;;
35699;SDS011;21818;51.078;12.108;2022-09-09T08:31:51;5.22;;;2.78;;
35699;SDS011;21818;51.078;12.108;2022-09-09T08:34:19;3.20;;;1.17;;
35699;SDS011;21818;51.078;12.108;2022-09-09T08:36:46;3.47;;;1.17;;
35699;SDS011;21818;51.078;12.108;2022-09-09T08:39:15;3.63;;;1.08;;
35699;SDS011;21818;51.078;12.108;2022-09-09T08:50:29;4.70;;;1.30;;
35699;SDS011;21818;51.078;12.108;2022-09-09T08:55:53;2.65;;;0.90;;
35699;SDS011;21818;51.078;12.108;2022-09-09T08:58:27;4.82;;;1.00;;
35699;SDS011;21818;51.078;12.108;2022-09-09T09:12:25;1.85;;;0.80;;
35699;SDS011;21818;51.078;12.108;2022-09-09T09:14:54;1.90;;;0.90;;
35699;SDS011;21818;51.078;12.108;2022-09-09T09:17:23;1.88;;;0.90;;
35699;SDS011;21818;51.078;12.108;2022-09-09T09:19:52;3.42;;;1.00;;
35699;SDS011;21818;51.078;12.108;2022-09-09T09:25:13;7.50;;;0.90;;
35699;SDS011;21818;51.078;12.108;2022-09-09T09:27:47;2.63;;;0.80;;
35699;SDS011;21818;51.078;12.108;2022-09-09T09:30:18;3.03;;;0.70;;
35699;SDS011;21818;51.078;12.108;2022-09-09T09:32:53;2.20;;;0.80;;
35699;SDS011;21818;51.078;12.108;2022-09-09T09:35:25;2.13;;;0.70;;
35699;SDS011;21818;51.078;12.108;2022-09-09T09:37:51;2.83;;;0.80;;
35699;SDS011;21818;51.078;12.108;2022-09-09T09:40:18;3.58;;;0.80;;
35699;SDS011;21818;51.078;12.108;2022-09-09T09:42:53;2.17;;;0.77;;
35699;SDS011;21818;51.078;12.108;2022-09-09T09:47:57;1.08;;;0.50;;
35699;SDS011;21818;51.078;12.108;2022-09-09T09:50:24;1.48;;;0.80;;
35699;SDS011;21818;51.078;12.108;2022-09-09T09:52:57;4.57;;;0.80;;
35699;SDS011;21818;51.078;12.108;2022-09-09T09:55:27;3.47;;;0.60;;
35699;SDS011;21818;51.078;12.108;2022-09-09T09:58:05;2.83;;;1.25;;
35699;SDS011;21818;51.078;12.108;2022-09-09T10:00:46;2.03;;;0.57;;
35699;SDS011;21818;51.078;12.108;2022-09-09T10:03:25;2.42;;;0.80;;
35699;SDS011;21818;51.078;12.108;2022-09-09T10:05:55;2.10;;;0.80;;
35699;SDS011;21818;51.078;12.108;2022-09-09T10:08:22;1.83;;;0.88;;
35699;SDS011;21818;51.078;12.108;2022-09-09T10:10:57;1.77;;;0.80;;
35699;SDS011;21818;51.078;12.108;2022-09-09T10:13:49;2.65;;;0.75;;
35699;SDS011;21818;51.078;12.108;2022-09-09T10:19:34;3.00;;;0.60;;
35699;SDS011;21818;51.078;12.108;2022-09-09T10:31:18;2.45;;;0.60;;
35699;SDS011;21818;51.078;12.108;2022-09-09T10:36:12;3.97;;;0.80;;
35699;SDS011;21818;51.078;12.108;2022-09-09T10:38:46;2.85;;;0.90;;
35699;SDS011;21818;51.078;12.108;2022-09-09T10:41:51;4.35;;;0.68;;
35699;SDS011;21818;51.078;12.108;2022-09-09T10:44:31;2.70;;;1.13;;
35699;SDS011;21818;51.078;12.108;2022-09-09T10:55:23;4.18;;;1.00;;
35699;SDS011;21818;51.078;12.108;2022-09-09T10:57:53;2.20;;;0.70;;
35699;SDS011;21818;51.078;12.108;2022-09-09T11:03:09;2.72;;;0.85;;
35699;SDS011;21818;51.078;12.108;2022-09-09T11:05:44;1.60;;;0.70;;
35699;SDS011;21818;51.078;12.108;2022-09-09T11:21:43;3.13;;;0.80;;
35699;SDS011;21818;51.078;12.108;2022-09-09T11:24:33;3.13;;;0.88;;
35699;SDS011;21818;51.078;12.108;2022-09-09T11:27:11;2.83;;;0.70;;
35699;SDS011;21818;51.078;12.108;2022-09-09T11:38:27;2.33;;;0.68;;
35699;SDS011;21818;51.078;12.108;2022-09-09T11:41:00;2.38;;;0.60;;
35699;SDS011;21818;51.078;12.108;2022-09-09T11:46:05;2.28;;;0.98;;
35699;SDS011;21818;51.078;12.108;2022-09-09T11:48:39;2.72;;;0.65;;
35699;SDS011;21818;51.078;12.108;2022-09-09T11:51:10;2.40;;;0.90;;
35699;SDS011;21818;51.078;12.108;2022-09-09T11:53:49;1.58;;;0.80;;
35699;SDS011;21818;51.078;12.108;2022-09-09T11:59:25;3.20;;;1.00;;
35699;SDS011;21818;51.078;12.108;2022-09-09T12:01:57;2.75;;;0.73;;
35699;SDS011;21818;51.078;12.108;2022-09-09T12:12:50;4.45;;;0.90;;
35699;SDS011;21818;51.078;12.108;2022-09-09T12:28:25;2.72;;;0.60;;
35699;SDS011;21818;51.078;12.108;2022-09-09T12:31:07;4.90;;;0.80;;
35699;SDS011;21818;51.078;12.108;2022-09-09T12:33:43;2.72;;;0.80;;
35699;SDS011;21818;51.078;12.108;2022-09-09T12:36:17;2.50;;;0.60;;
35699;SDS011;21818;51.078;12.108;2022-09-09T12:38:46;3.13;;;0.80;;
35699;SDS011;21818;51.078;12.108;2022-09-09T12:41:20;3.78;;;0.85;;
35699;SDS011;21818;51.078;12.108;2022-09-09T12:43:50;3.55;;;0.65;;
35699;SDS011;21818;51.078;12.108;2022-09-09T12:46:21;1.95;;;0.60;;
35699;SDS011;21818;51.078;12.108;2022-09-09T12:48:56;2.17;;;0.73;;
35699;SDS011;21818;51.078;12.108;2022-09-09T12:53:55;1.45;;;0.60;;
35699;SDS011;21818;51.078;12.108;2022-09-09T12:56:22;1.90;;;0.65;;
35699;SDS011;21818;51.078;12.108;2022-09-09T12:58:52;1.13;;;0.47;;
35699;SDS011;21818;51.078;12.108;2022-09-09T13:01:23;2.20;;;1.05;;
35699;SDS011;21818;51.078;12.108;2022-09-09T13:03:51;2.97;;;0.50;;
35699;SDS011;21818;51.078;12.108;2022-09-09T13:06:21;1.85;;;0.73;;
35699;SDS011;21818;51.078;12.108;2022-09-09T13:08:49;2.63;;;0.30;;
35699;SDS011;21818;51.078;12.108;2022-09-09T13:11:17;3.83;;;0.88;;
35699;SDS011;21818;51.078;12.108;2022-09-09T13:13:52;1.63;;;0.60;;
35699;SDS011;21818;51.078;12.108;2022-09-09T13:16:22;2.55;;;0.70;;
35699;SDS011;21818;51.078;12.108;2022-09-09T13:18:56;3.05;;;0.80;;
35699;SDS011;21818;51.078;12.108;2022-09-09T13:21:36;3.15;;;1.08;;
35699;SDS011;21818;51.078;12.108;2022-09-09T13:24:19;1.55;;;0.50;;
35699;SDS011;21818;51.078;12.108;2022-09-09T13:26:57;2.70;;;0.50;;
35699;SDS011;21818;51.078;12.108;2022-09-09T13:29:26;3.65;;;1.02;;
35699;SDS011;21818;51.078;12.108;2022-09-09T13:31:52;2.38;;;0.52;;
35699;SDS011;21818;51.078;12.108;2022-09-09T13:34:26;3.42;;;0.80;;
35699;SDS011;21818;51.078;12.108;2022-09-09T13:36:58;3.30;;;0.70;;
35699;SDS011;21818;51.078;12.108;2022-09-09T13:39:30;1.90;;;0.50;;
35699;SDS011;21818;51.078;12.108;2022-09-09T13:41:58;3.90;;;0.68;;
35699;SDS011;21818;51.078;12.108;2022-09-09T13:44:27;1.65;;;0.40;;
35699;SDS011;21818;51.078;12.108;2022-09-09T13:49:32;1.10;;;0.45;;
35699;SDS011;21818;51.078;12.108;2022-09-09T13:52:11;2.13;;;0.50;;
35699;SDS011;21818;51.078;12.108;2022-09-09T13:54:39;2.45;;;0.70;;
35699;SDS011;21818;51.078;12.108;2022-09-09T13:57:05;1.60;;;0.50;;
35699;SDS011;21818;51.078;12.108;2022-09-09T13:59:38;3.38;;;0.60;;
35699;SDS011;21818;51.078;12.108;2022-09-09T14:02:04;2.50;;;0.55;;
35699;SDS011;21818;51.078;12.108;2022-09-09T14:04:30;1.50;;;0.50;;
35699;SDS011;21818;51.078;12.108;2022-09-09T14:06:55;2.58;;;0.43;;
35699;SDS011;21818;51.078;12.108;2022-09-09T14:09:21;1.88;;;0.60;;
35699;SDS011;21818;51.078;12.108;2022-09-09T14:11:47;2.03;;;0.45;;
35699;SDS011;21818;51.078;12.108;2022-09-09T14:14:12;1.38;;;0.50;;
35699;SDS011;21818;51.078;12.108;2022-09-09T14:16:38;3.03;;;0.75;;
35699;SDS011;21818;51.078;12.108;2022-09-09T14:19:03;2.10;;;0.40;;
35699;SDS011;21818;51.078;12.108;2022-09-09T14:21:29;2.25;;;0.40;;
35699;SDS011;21818;51.078;12.108;2022-09-09T14:23:54;3.45;;;0.63;;
35699;SDS011;21818;51.078;12.108;2022-09-09T14:26:23;2.60;;;0.73;;
35699;SDS011;21818;51.078;12.108;2022-09-09T14:28:48;2.67;;;0.50;;
35699;SDS011;21818;51.078;12.108;2022-09-09T14:31:15;4.85;;;0.60;;
35699;SDS011;21818;51.078;12.108;2022-09-09T14:33:42;5.72;;;1.50;;
35699;SDS011;21818;51.078;12.108;2022-09-09T14:36:08;4.20;;;0.52;;
35699;SDS011;21818;51.078;12.108;2022-09-09T14:38:35;5.55;;;0.60;;
35699;SDS011;21818;51.078;12.108;2022-09-09T14:41:06;3.30;;;0.60;;
35699;SDS011;21818;51.078;12.108;2022-09-09T14:43:35;3.00;;;0.70;;
35699;SDS011;21818;51.078;12.108;2022-09-09T14:46:06;3.67;;;0.68;;
35699;SDS011;21818;51.078;12.108;2022-09-09T14:48:31;1.85;;;0.50;;
35699;SDS011;21818;51.078;12.108;2022-09-09T14:51:03;5.10;;;0.40;;
35699;SDS011;21818;51.078;12.108;2022-09-09T14:53:40;2.13;;;0.40;;
35699;SDS011;21818;51.078;12.108;2022-09-09T14:56:08;5.90;;;0.63;;
35699;SDS011;21818;51.078;12.108;2022-09-09T14:58:36;1.02;;;0.32;;
35699;SDS011;21818;51.078;12.108;2022-09-09T15:01:07;2.05;;;0.47;;
35699;SDS011;21818;51.078;12.108;2022-09-09T15:03:35;4.55;;;0.65;;
35699;SDS011;21818;51.078;12.108;2022-09-09T15:06:09;1.73;;;0.45;;
35699;SDS011;21818;51.078;12.108;2022-09-09T15:08:37;2.97;;;0.55;;
35699;SDS011;21818;51.078;12.108;2022-09-09T15:11:05;1.95;;;0.52;;
35699;SDS011;21818;51.078;12.108;2022-09-09T15:13:34;2.72;;;0.30;;
35699;SDS011;21818;51.078;12.108;2022-09-09T15:16:05;0.85;;;0.22;;
35699;SDS011;21818;51.078;12.108;2022-09-09T15:18:36;0.50;;;0.20;;
35699;SDS011;21818;51.078;12.108;2022-09-09T15:21:08;0.90;;;0.47;;
35699;SDS011;21818;51.078;12.108;2022-09-09T15:23:38;1.35;;;0.60;;
35699;SDS011;21818;51.078;12.108;2022-09-09T15:26:04;1.35;;;0.60;;
35699;SDS011;21818;51.078;12.108;2022-09-09T15:28:31;2.80;;;0.68;;
35699;SDS011;21818;51.078;12.108;2022-09-09T15:31:22;2.38;;;0.52;;
35699;SDS011;21818;51.078;12.108;2022-09-09T15:33:49;4.25;;;0.57;;
35699;SDS011;21818;51.078;12.108;2022-09-09T15:38:50;1.30;;;0.50;;
35699;SDS011;21818;51.078;12.108;2022-09-09T15:41:17;3.42;;;0.50;;
35699;SDS011;21818;51.078;12.108;2022-09-09T15:43:44;2.42;;;0.50;;
35699;SDS011;21818;51.078;12.108;2022-09-09T15:48:52;3.00;;;0.50;;
35699;SDS011;21818;51.078;12.108;2022-09-09T15:51:23;1.58;;;0.45;;
35699;SDS011;21818;51.078;12.108;2022-09-09T15:53:53;2.33;;;0.32;;
35699;SDS011;21818;51.078;12.108;2022-09-09T15:56:20;5.47;;;0.80;;
35699;SDS011;21818;51.078;12.108;2022-09-09T15:58:46;1.63;;;0.40;;
35699;SDS011;21818;51.078;12.108;2022-09-09T16:01:12;1.33;;;0.20;;
35699;SDS011;21818;51.078;12.108;2022-09-09T16:03:40;1.58;;;0.88;;
35699;SDS011;21818;51.078;12.108;2022-09-09T16:06:07;2.38;;;0.45;;
35699;SDS011;21818;51.078;12.108;2022-09-09T16:08:34;0.82;;;0.30;;
35699;SDS011;21818;51.078;12.108;2022-09-09T16:11:08;4.00;;;0.50;;
35699;SDS011;21818;51.078;12.108;2022-09-09T16:13:42;1.90;;;0.40;;
35699;SDS011;21818;51.078;12.108;2022-09-09T16:16:12;1.85;;;0.40;;
35699;SDS011;21818;51.078;12.108;2022-09-09T16:18:46;0.73;;;0.30;;
35699;SDS011;21818;51.078;12.108;2022-09-09T16:21:15;2.10;;;0.40;;
35699;SDS011;21818;51.078;12.108;2022-09-09T16:23:42;1.42;;;0.22;;
35699;SDS011;21818;51.078;12.108;2022-09-09T16:26:12;1.77;;;0.40;;
35699;SDS011;21818;51.078;12.108;2022-09-09T16:28:39;0.73;;;0.30;;
35699;SDS011;21818;51.078;12.108;2022-09-09T16:31:06;2.75;;;0.30;;
35699;SDS011;21818;51.078;12.108;2022-09-09T16:33:32;1.48;;;0.70;;
35699;SDS011;21818;51.078;12.108;2022-09-09T16:36:04;2.28;;;0.40;;
35699;SDS011;21818;51.078;12.108;2022-09-09T16:38:31;0.85;;;0.22;;
35699;SDS011;21818;51.078;12.108;2022-09-09T16:40:59;1.65;;;0.30;;
35699;SDS011;21818;51.078;12.108;2022-09-09T16:43:25;0.95;;;0.22;;
35699;SDS011;21818;51.078;12.108;2022-09-09T16:45:51;1.50;;;0.40;;
35699;SDS011;21818;51.078;12.108;2022-09-09T16:48:16;2.55;;;0.45;;
35699;SDS011;21818;51.078;12.108;2022-09-09T16:50:42;1.65;;;0.35;;
35699;SDS011;21818;51.078;12.108;2022-09-09T16:53:08;2.28;;;0.60;;
35699;SDS011;21818;51.078;12.108;2022-09-09T16:55:41;0.55;;;0.28;;
35699;SDS011;21818;51.078;12.108;2022-09-09T16:58:07;0.38;;;0.13;;
35699;SDS011;21818;51.078;12.108;2022-09-09T17:00:35;1.73;;;0.40;;
35699;SDS011;21818;51.078;12.108;2022-09-09T17:03:01;2.92;;;0.40;;
35699;SDS011;21818;51.078;12.108;2022-09-09T17:05:27;0.98;;;0.10;;
35699;SDS011;21818;51.078;12.108;2022-09-09T17:07:54;3.15;;;0.32;;
35699;SDS011;21818;51.078;12.108;2022-09-09T17:10:22;1.73;;;0.20;;
35699;SDS011;21818;51.078;12.108;2022-09-09T17:12:48;1.63;;;0.22;;
35699;SDS011;21818;51.078;12.108;2022-09-09T17:15:14;3.05;;;0.40;;
35699;SDS011;21818;51.078;12.108;2022-09-09T17:17:40;1.50;;;0.30;;
35699;SDS011;21818;51.078;12.108;2022-09-09T17:20:09;2.42;;;0.28;;
35699;SDS011;21818;51.078;12.108;2022-09-09T17:22:34;0.40;;;0.20;;
35699;SDS011;21818;51.078;12.108;2022-09-09T17:25:00;1.75;;;0.32;;
35699;SDS011;21818;51.078;12.108;2022-09-09T17:27:25;1.05;;;0.30;;
35699;SDS011;21818;51.078;12.108;2022-09-09T17:29:51;1.60;;;0.20;;
35699;SDS011;21818;51.078;12.108;2022-09-09T17:32:16;0.35;;;0.20;;
35699;SDS011;21818;51.078;12.108;2022-09-09T17:34:43;1.38;;;0.20;;
35699;SDS011;21818;51.078;12.108;2022-09-09T17:37:09;0.43;;;0.17;;